sensor_id;sensor_type;location;lat;lon;timestamp;temperature;humidity
25554;DHT22;13446;50.926;5.332;2022-09-28T00:01:04;10.90;99.90
25554;DHT22;13446;50.926;5.332;2022-09-28T00:03:30;11.00;99.90
25554;DHT22;13446;50.926;5.332;2022-09-28T00:06:03;10.90;99.90
25554;DHT22;13446;50.926;5.332;2022-09-28T00:08:30;10.90;99.90
25554;DHT22;13446;50.926;5.332;2022-09-28T00:10:56;11.00;99.90
25554;DHT22;13446;50.926;5.332;2022-09-28T00:13:22;11.00;99.90
25554;DHT22;13446;50.926;5.332;2022-09-28T00:16:10;11.00;99.90
25554;DHT22;13446;50.926;5.332;2022-09-28T00:18:34;11.00;99.90
25554;DHT22;13446;50.926;5.332;2022-09-28T00:23:26;10.90;99.90
25554;DHT22;13446;50.926;5.332;2022-09-28T00:25:51;10.90;99.90
25554;DHT22;13446;50.926;5.332;2022-09-28T00:28:17;10.90;99.90
25554;DHT22;13446;50.926;5.332;2022-09-28T00:30:42;10.90;99.90
25554;DHT22;13446;50.926;5.332;2022-09-28T00:33:11;11.00;99.90
25554;DHT22;13446;50.926;5.332;2022-09-28T00:35:36;11.00;99.90
25554;DHT22;13446;50.926;5.332;2022-09-28T00:38:02;11.00;99.90
25554;DHT22;13446;50.926;5.332;2022-09-28T00:40:28;11.00;99.90
25554;DHT22;13446;50.926;5.332;2022-09-28T00:42:53;11.00;99.90
25554;DHT22;13446;50.926;5.332;2022-09-28T00:45:20;11.00;99.90
25554;DHT22;13446;50.926;5.332;2022-09-28T00:55:09;11.10;99.90
25554;DHT22;13446;50.926;5.332;2022-09-28T00:57:36;11.00;99.90
25554;DHT22;13446;50.926;5.332;2022-09-28T01:00:04;10.90;99.90
25554;DHT22;13446;50.926;5.332;2022-09-28T01:02:30;11.00;99.90
25554;DHT22;13446;50.926;5.332;2022-09-28T01:04:56;11.00;99.90
25554;DHT22;13446;50.926;5.332;2022-09-28T01:07:22;11.00;99.90
25554;DHT22;13446;50.926;5.332;2022-09-28T01:09:48;11.00;99.90
25554;DHT22;13446;50.926;5.332;2022-09-28T01:12:14;10.90;99.90
25554;DHT22;13446;50.926;5.332;2022-09-28T01:14:40;11.00;99.90
25554;DHT22;13446;50.926;5.332;2022-09-28T01:17:16;11.00;99.90
25554;DHT22;13446;50.926;5.332;2022-09-28T01:19:53;11.00;99.90
25554;DHT22;13446;50.926;5.332;2022-09-28T01:27:40;10.90;99.90
25554;DHT22;13446;50.926;5.332;2022-09-28T01:30:07;10.70;99.90
25554;DHT22;13446;50.926;5.332;2022-09-28T01:32:49;10.70;99.90
25554;DHT22;13446;50.926;5.332;2022-09-28T01:37:49;10.70;99.90
25554;DHT22;13446;50.926;5.332;2022-09-28T01:40:16;10.70;99.90
25554;DHT22;13446;50.926;5.332;2022-09-28T01:42:44;10.60;99.90
25554;DHT22;13446;50.926;5.332;2022-09-28T01:45:15;10.50;99.90
25554;DHT22;13446;50.926;5.332;2022-09-28T01:47:42;10.50;99.90
25554;DHT22;13446;50.926;5.332;2022-09-28T01:50:10;10.50;99.90
25554;DHT22;13446;50.926;5.332;2022-09-28T01:52:40;10.40;99.90
25554;DHT22;13446;50.926;5.332;2022-09-28T01:55:09;10.30;99.90
25554;DHT22;13446;50.926;5.332;2022-09-28T01:57:40;10.30;99.90
25554;DHT22;13446;50.926;5.332;2022-09-28T02:00:07;10.20;99.90
25554;DHT22;13446;50.926;5.332;2022-09-28T02:02:42;10.10;99.90
25554;DHT22;13446;50.926;5.332;2022-09-28T02:05:10;10.00;99.90
25554;DHT22;13446;50.926;5.332;2022-09-28T02:07:41;10.10;99.90
25554;DHT22;13446;50.926;5.332;2022-09-28T02:10:12;10.20;99.90
25554;DHT22;13446;50.926;5.332;2022-09-28T02:12:49;10.20;99.90
25554;DHT22;13446;50.926;5.332;2022-09-28T02:15:22;10.10;99.90
25554;DHT22;13446;50.926;5.332;2022-09-28T02:17:48;10.10;99.90
25554;DHT22;13446;50.926;5.332;2022-09-28T02:20:14;10.10;99.90
25554;DHT22;13446;50.926;5.332;2022-09-28T02:22:41;10.10;99.90
25554;DHT22;13446;50.926;5.332;2022-09-28T02:30:00;10.30;99.90
25554;DHT22;13446;50.926;5.332;2022-09-28T02:32:25;10.40;99.90
25554;DHT22;13446;50.926;5.332;2022-09-28T02:34:53;10.20;99.90
25554;DHT22;13446;50.926;5.332;2022-09-28T02:37:19;10.10;99.90
25554;DHT22;13446;50.926;5.332;2022-09-28T02:39:45;10.10;99.90
25554;DHT22;13446;50.926;5.332;2022-09-28T02:42:22;10.10;99.90
25554;DHT22;13446;50.926;5.332;2022-09-28T03:01:18;10.40;99.90
25554;DHT22;13446;50.926;5.332;2022-09-28T03:03:56;10.30;99.90
25554;DHT22;13446;50.926;5.332;2022-09-28T03:08:59;10.40;99.90
25554;DHT22;13446;50.926;5.332;2022-09-28T03:11:31;10.50;99.90
25554;DHT22;13446;50.926;5.332;2022-09-28T03:14:00;10.40;99.90
25554;DHT22;13446;50.926;5.332;2022-09-28T03:16:27;10.50;99.90
25554;DHT22;13446;50.926;5.332;2022-09-28T03:18:53;10.50;99.90
25554;DHT22;13446;50.926;5.332;2022-09-28T03:21:18;10.40;99.90
25554;DHT22;13446;50.926;5.332;2022-09-28T03:23:45;10.30;99.90
25554;DHT22;13446;50.926;5.332;2022-09-28T03:26:12;10.30;99.90
25554;DHT22;13446;50.926;5.332;2022-09-28T03:28:38;10.30;99.90
25554;DHT22;13446;50.926;5.332;2022-09-28T03:31:03;10.40;99.90
25554;DHT22;13446;50.926;5.332;2022-09-28T03:33:29;10.30;99.90
25554;DHT22;13446;50.926;5.332;2022-09-28T03:35:55;10.30;99.90
25554;DHT22;13446;50.926;5.332;2022-09-28T03:38:20;10.30;99.90
25554;DHT22;13446;50.926;5.332;2022-09-28T03:40:56;10.30;99.90
25554;DHT22;13446;50.926;5.332;2022-09-28T03:43:22;10.20;99.90
25554;DHT22;13446;50.926;5.332;2022-09-28T03:45:54;10.10;99.90
25554;DHT22;13446;50.926;5.332;2022-09-28T03:48:21;10.20;99.90
25554;DHT22;13446;50.926;5.332;2022-09-28T03:50:47;10.00;99.90
25554;DHT22;13446;50.926;5.332;2022-09-28T03:53:13;10.10;99.90
25554;DHT22;13446;50.926;5.332;2022-09-28T03:55:38;10.10;99.90
25554;DHT22;13446;50.926;5.332;2022-09-28T03:58:04;10.00;99.90
25554;DHT22;13446;50.926;5.332;2022-09-28T04:00:29;10.00;99.90
25554;DHT22;13446;50.926;5.332;2022-09-28T04:02:55;10.00;99.90
25554;DHT22;13446;50.926;5.332;2022-09-28T04:05:20;10.10;99.90
25554;DHT22;13446;50.926;5.332;2022-09-28T04:07:46;10.10;99.90
25554;DHT22;13446;50.926;5.332;2022-09-28T04:10:11;10.10;99.90
25554;DHT22;13446;50.926;5.332;2022-09-28T04:12:37;10.00;99.90
25554;DHT22;13446;50.926;5.332;2022-09-28T04:15:02;10.10;99.90
25554;DHT22;13446;50.926;5.332;2022-09-28T04:17:28;10.10;99.90
25554;DHT22;13446;50.926;5.332;2022-09-28T04:19:54;10.10;99.90
25554;DHT22;13446;50.926;5.332;2022-09-28T04:22:19;10.10;99.90
25554;DHT22;13446;50.926;5.332;2022-09-28T04:24:45;10.10;99.90
25554;DHT22;13446;50.926;5.332;2022-09-28T04:27:10;10.20;99.90
25554;DHT22;13446;50.926;5.332;2022-09-28T04:29:54;10.20;99.90
25554;DHT22;13446;50.926;5.332;2022-09-28T04:32:20;10.20;99.90
25554;DHT22;13446;50.926;5.332;2022-09-28T04:34:46;10.20;99.90
25554;DHT22;13446;50.926;5.332;2022-09-28T04:37:12;10.20;99.90
25554;DHT22;13446;50.926;5.332;2022-09-28T04:39:37;10.20;99.90
25554;DHT22;13446;50.926;5.332;2022-09-28T04:42:04;10.00;99.90
25554;DHT22;13446;50.926;5.332;2022-09-28T04:44:30;10.00;99.90
25554;DHT22;13446;50.926;5.332;2022-09-28T04:46:55;10.00;99.90
25554;DHT22;13446;50.926;5.332;2022-09-28T04:49:21;9.80;99.90
25554;DHT22;13446;50.926;5.332;2022-09-28T04:51:51;9.80;99.90
25554;DHT22;13446;50.926;5.332;2022-09-28T04:54:16;9.80;99.90
25554;DHT22;13446;50.926;5.332;2022-09-28T04:56:42;9.80;99.90
25554;DHT22;13446;50.926;5.332;2022-09-28T04:59:08;9.70;99.90
25554;DHT22;13446;50.926;5.332;2022-09-28T05:01:34;9.70;99.90
25554;DHT22;13446;50.926;5.332;2022-09-28T05:04:02;9.70;99.90
25554;DHT22;13446;50.926;5.332;2022-09-28T05:06:28;9.70;99.90
25554;DHT22;13446;50.926;5.332;2022-09-28T05:08:54;9.60;99.90
25554;DHT22;13446;50.926;5.332;2022-09-28T05:11:21;9.50;99.90
25554;DHT22;13446;50.926;5.332;2022-09-28T05:13:47;9.50;99.90
25554;DHT22;13446;50.926;5.332;2022-09-28T05:16:14;9.40;99.90
25554;DHT22;13446;50.926;5.332;2022-09-28T05:18:40;9.50;99.90
25554;DHT22;13446;50.926;5.332;2022-09-28T05:21:10;9.50;99.90
25554;DHT22;13446;50.926;5.332;2022-09-28T05:23:37;9.50;99.90
25554;DHT22;13446;50.926;5.332;2022-09-28T05:26:02;9.40;99.90
25554;DHT22;13446;50.926;5.332;2022-09-28T05:28:28;9.50;99.90
25554;DHT22;13446;50.926;5.332;2022-09-28T05:30:57;9.40;99.90
25554;DHT22;13446;50.926;5.332;2022-09-28T05:33:23;9.40;99.90
25554;DHT22;13446;50.926;5.332;2022-09-28T05:35:49;9.30;99.90
25554;DHT22;13446;50.926;5.332;2022-09-28T05:38:14;9.30;99.90
25554;DHT22;13446;50.926;5.332;2022-09-28T05:40:39;9.30;99.90
25554;DHT22;13446;50.926;5.332;2022-09-28T05:43:05;9.30;99.90
25554;DHT22;13446;50.926;5.332;2022-09-28T05:45:30;9.30;99.90
25554;DHT22;13446;50.926;5.332;2022-09-28T05:47:56;9.30;99.90
25554;DHT22;13446;50.926;5.332;2022-09-28T05:50:21;9.30;99.90
25554;DHT22;13446;50.926;5.332;2022-09-28T05:52:55;9.20;99.90
25554;DHT22;13446;50.926;5.332;2022-09-28T05:55:21;9.20;99.90
25554;DHT22;13446;50.926;5.332;2022-09-28T05:57:46;9.30;99.90
25554;DHT22;13446;50.926;5.332;2022-09-28T06:00:12;9.30;99.90
25554;DHT22;13446;50.926;5.332;2022-09-28T06:02:37;9.30;99.90
25554;DHT22;13446;50.926;5.332;2022-09-28T06:05:03;9.30;99.90
25554;DHT22;13446;50.926;5.332;2022-09-28T06:07:28;9.40;99.90
25554;DHT22;13446;50.926;5.332;2022-09-28T06:09:54;9.30;99.90
25554;DHT22;13446;50.926;5.332;2022-09-28T06:12:20;9.40;99.90
25554;DHT22;13446;50.926;5.332;2022-09-28T06:14:45;9.40;99.90
25554;DHT22;13446;50.926;5.332;2022-09-28T06:17:11;9.40;99.90
25554;DHT22;13446;50.926;5.332;2022-09-28T06:19:36;9.40;99.90
25554;DHT22;13446;50.926;5.332;2022-09-28T06:22:03;9.60;99.90
25554;DHT22;13446;50.926;5.332;2022-09-28T06:24:28;9.60;99.90
25554;DHT22;13446;50.926;5.332;2022-09-28T06:26:54;9.60;99.90
25554;DHT22;13446;50.926;5.332;2022-09-28T06:29:19;9.60;99.90
25554;DHT22;13446;50.926;5.332;2022-09-28T06:31:45;9.60;99.90
25554;DHT22;13446;50.926;5.332;2022-09-28T06:34:11;9.70;99.90
25554;DHT22;13446;50.926;5.332;2022-09-28T06:36:37;9.80;99.90
25554;DHT22;13446;50.926;5.332;2022-09-28T06:39:03;10.20;99.90
25554;DHT22;13446;50.926;5.332;2022-09-28T06:41:29;11.40;99.90
25554;DHT22;13446;50.926;5.332;2022-09-28T06:43:54;12.80;99.90
25554;DHT22;13446;50.926;5.332;2022-09-28T06:46:20;14.00;99.90
25554;DHT22;13446;50.926;5.332;2022-09-28T06:48:46;15.30;99.90
25554;DHT22;13446;50.926;5.332;2022-09-28T06:51:12;16.50;99.90
25554;DHT22;13446;50.926;5.332;2022-09-28T06:53:37;17.50;99.90
25554;DHT22;13446;50.926;5.332;2022-09-28T06:56:03;18.60;99.90
25554;DHT22;13446;50.926;5.332;2022-09-28T06:58:31;19.50;99.90
25554;DHT22;13446;50.926;5.332;2022-09-28T07:00:56;20.40;99.90
25554;DHT22;13446;50.926;5.332;2022-09-28T07:03:25;20.80;99.80
25554;DHT22;13446;50.926;5.332;2022-09-28T07:05:52;21.10;99.90
25554;DHT22;13446;50.926;5.332;2022-09-28T07:08:19;21.70;97.90
25554;DHT22;13446;50.926;5.332;2022-09-28T07:10:45;22.20;95.30
25554;DHT22;13446;50.926;5.332;2022-09-28T07:13:11;22.80;94.10
25554;DHT22;13446;50.926;5.332;2022-09-28T07:15:38;23.40;91.40
25554;DHT22;13446;50.926;5.332;2022-09-28T07:18:04;23.90;90.20
25554;DHT22;13446;50.926;5.332;2022-09-28T07:20:34;24.10;86.60
25554;DHT22;13446;50.926;5.332;2022-09-28T07:23:00;24.30;84.20
25554;DHT22;13446;50.926;5.332;2022-09-28T07:25:26;24.80;84.10
25554;DHT22;13446;50.926;5.332;2022-09-28T07:27:54;24.90;78.90
25554;DHT22;13446;50.926;5.332;2022-09-28T07:30:22;25.30;77.70
25554;DHT22;13446;50.926;5.332;2022-09-28T07:32:47;25.80;76.10
25554;DHT22;13446;50.926;5.332;2022-09-28T07:35:13;26.30;73.00
25554;DHT22;13446;50.926;5.332;2022-09-28T07:37:39;26.80;69.70
25554;DHT22;13446;50.926;5.332;2022-09-28T07:40:06;27.00;63.70
25554;DHT22;13446;50.926;5.332;2022-09-28T07:42:51;26.70;64.50
25554;DHT22;13446;50.926;5.332;2022-09-28T07:45:16;26.70;65.90
25554;DHT22;13446;50.926;5.332;2022-09-28T07:47:44;26.90;63.60
25554;DHT22;13446;50.926;5.332;2022-09-28T07:50:10;26.60;62.90
25554;DHT22;13446;50.926;5.332;2022-09-28T07:52:35;26.10;64.10
25554;DHT22;13446;50.926;5.332;2022-09-28T07:55:01;27.00;63.60
25554;DHT22;13446;50.926;5.332;2022-09-28T07:57:27;27.60;62.10
25554;DHT22;13446;50.926;5.332;2022-09-28T07:59:52;28.10;59.10
25554;DHT22;13446;50.926;5.332;2022-09-28T08:02:18;28.30;58.40
25554;DHT22;13446;50.926;5.332;2022-09-28T08:04:45;28.10;57.30
25554;DHT22;13446;50.926;5.332;2022-09-28T08:07:11;27.90;57.00
25554;DHT22;13446;50.926;5.332;2022-09-28T08:09:37;28.10;58.20
25554;DHT22;13446;50.926;5.332;2022-09-28T08:12:03;28.40;55.90
25554;DHT22;13446;50.926;5.332;2022-09-28T08:14:29;28.30;54.10
25554;DHT22;13446;50.926;5.332;2022-09-28T08:16:58;28.80;54.50
25554;DHT22;13446;50.926;5.332;2022-09-28T08:19:24;29.00;53.30
25554;DHT22;13446;50.926;5.332;2022-09-28T08:21:49;29.30;54.10
25554;DHT22;13446;50.926;5.332;2022-09-28T08:24:15;29.30;52.90
25554;DHT22;13446;50.926;5.332;2022-09-28T08:26:42;29.50;52.80
25554;DHT22;13446;50.926;5.332;2022-09-28T08:29:08;29.90;51.30
25554;DHT22;13446;50.926;5.332;2022-09-28T08:31:34;29.70;50.30
25554;DHT22;13446;50.926;5.332;2022-09-28T08:33:59;30.00;50.20
25554;DHT22;13446;50.926;5.332;2022-09-28T08:36:25;29.90;50.80
25554;DHT22;13446;50.926;5.332;2022-09-28T08:38:51;30.60;49.10
25554;DHT22;13446;50.926;5.332;2022-09-28T08:46:18;31.70;48.00
25554;DHT22;13446;50.926;5.332;2022-09-28T08:51:54;29.40;48.20
25554;DHT22;13446;50.926;5.332;2022-09-28T08:56:49;28.90;50.10
25554;DHT22;13446;50.926;5.332;2022-09-28T08:59:17;28.40;51.00
25554;DHT22;13446;50.926;5.332;2022-09-28T09:01:46;29.30;49.70
25554;DHT22;13446;50.926;5.332;2022-09-28T09:04:13;30.30;48.10
25554;DHT22;13446;50.926;5.332;2022-09-28T09:11:56;30.40;44.70
25554;DHT22;13446;50.926;5.332;2022-09-28T09:16:54;30.00;45.40
25554;DHT22;13446;50.926;5.332;2022-09-28T09:19:37;30.40;45.50
25554;DHT22;13446;50.926;5.332;2022-09-28T09:22:15;28.90;45.30
25554;DHT22;13446;50.926;5.332;2022-09-28T09:24:45;26.80;48.10
25554;DHT22;13446;50.926;5.332;2022-09-28T09:30:02;27.30;50.50
25554;DHT22;13446;50.926;5.332;2022-09-28T09:38:00;30.30;45.00
25554;DHT22;13446;50.926;5.332;2022-09-28T09:40:42;30.40;44.90
25554;DHT22;13446;50.926;5.332;2022-09-28T09:45:57;29.90;43.80
25554;DHT22;13446;50.926;5.332;2022-09-28T09:56:06;30.80;43.40
25554;DHT22;13446;50.926;5.332;2022-09-28T09:58:35;30.50;44.00
25554;DHT22;13446;50.926;5.332;2022-09-28T10:01:10;31.10;44.00
25554;DHT22;13446;50.926;5.332;2022-09-28T10:03:38;31.20;43.00
25554;DHT22;13446;50.926;5.332;2022-09-28T10:06:10;30.20;43.20
25554;DHT22;13446;50.926;5.332;2022-09-28T10:08:38;30.40;43.10
25554;DHT22;13446;50.926;5.332;2022-09-28T10:11:27;29.40;43.50
25554;DHT22;13446;50.926;5.332;2022-09-28T10:13:50;27.80;44.50
25554;DHT22;13446;50.926;5.332;2022-09-28T10:16:16;27.00;46.60
25554;DHT22;13446;50.926;5.332;2022-09-28T10:18:42;28.10;47.00
25554;DHT22;13446;50.926;5.332;2022-09-28T10:21:10;28.70;44.90
25554;DHT22;13446;50.926;5.332;2022-09-28T10:23:36;28.00;46.20
25554;DHT22;13446;50.926;5.332;2022-09-28T10:26:05;29.10;47.30
25554;DHT22;13446;50.926;5.332;2022-09-28T10:28:33;29.50;45.40
25554;DHT22;13446;50.926;5.332;2022-09-28T10:30:59;28.80;44.70
25554;DHT22;13446;50.926;5.332;2022-09-28T10:33:34;27.30;46.20
25554;DHT22;13446;50.926;5.332;2022-09-28T10:36:00;26.60;49.20
25554;DHT22;13446;50.926;5.332;2022-09-28T10:38:28;26.30;50.00
25554;DHT22;13446;50.926;5.332;2022-09-28T10:40:57;26.40;49.20
25554;DHT22;13446;50.926;5.332;2022-09-28T10:43:24;27.20;50.40
25554;DHT22;13446;50.926;5.332;2022-09-28T10:48:26;27.70;48.20
25554;DHT22;13446;50.926;5.332;2022-09-28T10:50:59;27.40;46.60
25554;DHT22;13446;50.926;5.332;2022-09-28T10:53:26;27.20;48.30
25554;DHT22;13446;50.926;5.332;2022-09-28T10:56:26;27.70;47.40
25554;DHT22;13446;50.926;5.332;2022-09-28T10:58:44;27.60;47.20
25554;DHT22;13446;50.926;5.332;2022-09-28T11:01:19;25.40;49.50
25554;DHT22;13446;50.926;5.332;2022-09-28T11:06:11;25.90;52.90
25554;DHT22;13446;50.926;5.332;2022-09-28T11:08:38;27.50;50.00
25554;DHT22;13446;50.926;5.332;2022-09-28T11:13:42;30.30;45.90
25554;DHT22;13446;50.926;5.332;2022-09-28T11:16:12;30.50;42.60
25554;DHT22;13446;50.926;5.332;2022-09-28T11:18:43;30.50;44.20
25554;DHT22;13446;50.926;5.332;2022-09-28T11:23:34;27.00;47.90
25554;DHT22;13446;50.926;5.332;2022-09-28T11:26:08;26.50;49.70
25554;DHT22;13446;50.926;5.332;2022-09-28T11:28:37;25.30;50.40
25554;DHT22;13446;50.926;5.332;2022-09-28T11:31:03;24.40;52.70
25554;DHT22;13446;50.926;5.332;2022-09-28T11:33:32;23.30;55.10
25554;DHT22;13446;50.926;5.332;2022-09-28T11:38:52;21.70;63.90
25554;DHT22;13446;50.926;5.332;2022-09-28T11:52:04;21.00;67.30
25554;DHT22;13446;50.926;5.332;2022-09-28T11:54:35;21.10;69.70
25554;DHT22;13446;50.926;5.332;2022-09-28T11:57:03;20.90;70.60
25554;DHT22;13446;50.926;5.332;2022-09-28T12:01:55;19.90;75.20
25554;DHT22;13446;50.926;5.332;2022-09-28T12:06:55;19.70;78.20
25554;DHT22;13446;50.926;5.332;2022-09-28T12:09:23;19.80;79.70
25554;DHT22;13446;50.926;5.332;2022-09-28T12:11:53;20.20;78.90
25554;DHT22;13446;50.926;5.332;2022-09-28T12:14:22;20.20;78.30
25554;DHT22;13446;50.926;5.332;2022-09-28T12:16:52;20.60;77.00
25554;DHT22;13446;50.926;5.332;2022-09-28T12:21:55;20.00;79.90
25554;DHT22;13446;50.926;5.332;2022-09-28T12:29:25;20.50;76.80
25554;DHT22;13446;50.926;5.332;2022-09-28T12:32:16;20.60;76.90
25554;DHT22;13446;50.926;5.332;2022-09-28T12:34:39;21.90;74.70
25554;DHT22;13446;50.926;5.332;2022-09-28T12:44:46;21.80;70.60
25554;DHT22;13446;50.926;5.332;2022-09-28T12:52:26;20.90;74.50
25554;DHT22;13446;50.926;5.332;2022-09-28T12:57:44;19.60;82.80
25554;DHT22;13446;50.926;5.332;2022-09-28T13:08:18;18.40;90.20
25554;DHT22;13446;50.926;5.332;2022-09-28T13:18:51;18.80;91.60
25554;DHT22;13446;50.926;5.332;2022-09-28T13:23:47;17.90;96.70
25554;DHT22;13446;50.926;5.332;2022-09-28T13:26:23;18.00;99.90
25554;DHT22;13446;50.926;5.332;2022-09-28T13:28:53;18.50;99.90
25554;DHT22;13446;50.926;5.332;2022-09-28T13:31:21;18.40;99.90
25554;DHT22;13446;50.926;5.332;2022-09-28T13:33:48;18.60;99.90
25554;DHT22;13446;50.926;5.332;2022-09-28T13:38:52;19.30;99.90
25554;DHT22;13446;50.926;5.332;2022-09-28T13:41:25;19.90;99.00
25554;DHT22;13446;50.926;5.332;2022-09-28T14:00:15;22.10;87.60
25554;DHT22;13446;50.926;5.332;2022-09-28T14:02:45;21.60;91.10
25554;DHT22;13446;50.926;5.332;2022-09-28T14:10:22;18.50;95.50
25554;DHT22;13446;50.926;5.332;2022-09-28T14:12:50;18.40;96.60
25554;DHT22;13446;50.926;5.332;2022-09-28T14:20:53;16.80;99.90
25554;DHT22;13446;50.926;5.332;2022-09-28T14:25:58;16.50;99.90
25554;DHT22;13446;50.926;5.332;2022-09-28T14:28:34;16.60;99.90
25554;DHT22;13446;50.926;5.332;2022-09-28T14:31:07;16.60;99.90
25554;DHT22;13446;50.926;5.332;2022-09-28T14:33:35;16.40;99.90
25554;DHT22;13446;50.926;5.332;2022-09-28T14:36:04;16.40;99.90
25554;DHT22;13446;50.926;5.332;2022-09-28T14:38:33;16.60;99.90
25554;DHT22;13446;50.926;5.332;2022-09-28T14:41:26;16.60;99.90
25554;DHT22;13446;50.926;5.332;2022-09-28T14:43:56;16.10;99.90
25554;DHT22;13446;50.926;5.332;2022-09-28T14:46:26;16.10;99.90
25554;DHT22;13446;50.926;5.332;2022-09-28T14:48:52;16.20;99.90
25554;DHT22;13446;50.926;5.332;2022-09-28T14:53:58;16.50;99.90
25554;DHT22;13446;50.926;5.332;2022-09-28T14:56:26;16.20;99.90
25554;DHT22;13446;50.926;5.332;2022-09-28T14:58:53;16.40;99.90
25554;DHT22;13446;50.926;5.332;2022-09-28T15:01:21;16.30;99.90
25554;DHT22;13446;50.926;5.332;2022-09-28T15:03:53;16.40;99.90
25554;DHT22;13446;50.926;5.332;2022-09-28T15:06:22;16.80;99.90
25554;DHT22;13446;50.926;5.332;2022-09-28T15:08:48;16.90;99.90
25554;DHT22;13446;50.926;5.332;2022-09-28T15:11:15;17.20;99.90
25554;DHT22;13446;50.926;5.332;2022-09-28T15:13:42;17.20;99.90
25554;DHT22;13446;50.926;5.332;2022-09-28T15:16:11;17.20;99.90
25554;DHT22;13446;50.926;5.332;2022-09-28T15:21:18;17.20;99.90
25554;DHT22;13446;50.926;5.332;2022-09-28T15:23:45;16.80;99.90
25554;DHT22;13446;50.926;5.332;2022-09-28T15:26:46;17.00;99.90
25554;DHT22;13446;50.926;5.332;2022-09-28T15:29:13;17.20;99.90
25554;DHT22;13446;50.926;5.332;2022-09-28T15:31:40;16.90;99.90
25554;DHT22;13446;50.926;5.332;2022-09-28T15:34:10;16.70;99.90
25554;DHT22;13446;50.926;5.332;2022-09-28T15:36:54;16.50;99.90
25554;DHT22;13446;50.926;5.332;2022-09-28T15:39:21;16.90;99.90
25554;DHT22;13446;50.926;5.332;2022-09-28T15:41:48;17.00;99.90
25554;DHT22;13446;50.926;5.332;2022-09-28T15:46:43;17.30;99.90
25554;DHT22;13446;50.926;5.332;2022-09-28T15:49:21;17.50;99.90
25554;DHT22;13446;50.926;5.332;2022-09-28T15:51:48;17.50;99.90
25554;DHT22;13446;50.926;5.332;2022-09-28T15:54:16;17.50;99.90
25554;DHT22;13446;50.926;5.332;2022-09-28T15:56:51;17.50;99.90
25554;DHT22;13446;50.926;5.332;2022-09-28T15:59:32;17.30;99.90
25554;DHT22;13446;50.926;5.332;2022-09-28T16:12:17;16.60;99.90
25554;DHT22;13446;50.926;5.332;2022-09-28T16:14:46;16.70;99.90
25554;DHT22;13446;50.926;5.332;2022-09-28T16:17:14;16.60;99.90
25554;DHT22;13446;50.926;5.332;2022-09-28T16:19:41;16.50;99.90
25554;DHT22;13446;50.926;5.332;2022-09-28T16:22:08;16.80;99.90
25554;DHT22;13446;50.926;5.332;2022-09-28T16:24:37;16.90;99.90
25554;DHT22;13446;50.926;5.332;2022-09-28T16:32:35;16.40;99.90
25554;DHT22;13446;50.926;5.332;2022-09-28T16:37:37;16.00;99.90
25554;DHT22;13446;50.926;5.332;2022-09-28T16:40:06;16.00;99.90
25554;DHT22;13446;50.926;5.332;2022-09-28T16:42:33;15.80;99.90
25554;DHT22;13446;50.926;5.332;2022-09-28T16:44:58;16.00;99.90
25554;DHT22;13446;50.926;5.332;2022-09-28T16:47:27;15.80;99.90
25554;DHT22;13446;50.926;5.332;2022-09-28T16:50:09;15.80;99.90
25554;DHT22;13446;50.926;5.332;2022-09-28T16:52:35;15.90;99.90
25554;DHT22;13446;50.926;5.332;2022-09-28T16:55:19;15.70;99.90
25554;DHT22;13446;50.926;5.332;2022-09-28T16:57:45;15.80;99.90
25554;DHT22;13446;50.926;5.332;2022-09-28T17:00:15;15.80;99.90
25554;DHT22;13446;50.926;5.332;2022-09-28T17:02:42;15.70;99.90
25554;DHT22;13446;50.926;5.332;2022-09-28T17:05:07;15.70;99.90
25554;DHT22;13446;50.926;5.332;2022-09-28T17:07:34;15.70;99.90
25554;DHT22;13446;50.926;5.332;2022-09-28T17:10:00;15.50;99.90
25554;DHT22;13446;50.926;5.332;2022-09-28T17:12:25;15.50;99.90
25554;DHT22;13446;50.926;5.332;2022-09-28T17:14:53;15.50;99.90
25554;DHT22;13446;50.926;5.332;2022-09-28T17:17:19;15.40;99.90
25554;DHT22;13446;50.926;5.332;2022-09-28T17:19:48;14.80;99.90
25554;DHT22;13446;50.926;5.332;2022-09-28T17:22:13;14.90;99.90
25554;DHT22;13446;50.926;5.332;2022-09-28T17:24:40;15.00;99.90
25554;DHT22;13446;50.926;5.332;2022-09-28T17:27:09;14.80;99.90
25554;DHT22;13446;50.926;5.332;2022-09-28T17:29:38;14.70;99.90
25554;DHT22;13446;50.926;5.332;2022-09-28T17:32:05;14.70;99.90
25554;DHT22;13446;50.926;5.332;2022-09-28T17:34:35;14.70;99.90
25554;DHT22;13446;50.926;5.332;2022-09-28T17:37:01;14.50;99.90
25554;DHT22;13446;50.926;5.332;2022-09-28T17:39:26;14.50;99.90
25554;DHT22;13446;50.926;5.332;2022-09-28T17:41:52;14.60;99.90
25554;DHT22;13446;50.926;5.332;2022-09-28T17:44:17;14.60;99.90
25554;DHT22;13446;50.926;5.332;2022-09-28T17:46:44;14.60;99.90
25554;DHT22;13446;50.926;5.332;2022-09-28T17:49:12;14.40;99.90
25554;DHT22;13446;50.926;5.332;2022-09-28T17:51:38;14.40;99.90
25554;DHT22;13446;50.926;5.332;2022-09-28T17:54:04;14.50;99.90
25554;DHT22;13446;50.926;5.332;2022-09-28T17:56:31;14.60;99.90
25554;DHT22;13446;50.926;5.332;2022-09-28T17:59:00;14.50;99.90
25554;DHT22;13446;50.926;5.332;2022-09-28T18:01:28;14.50;99.90
25554;DHT22;13446;50.926;5.332;2022-09-28T18:03:58;14.40;99.90
25554;DHT22;13446;50.926;5.332;2022-09-28T18:06:24;14.40;99.90
25554;DHT22;13446;50.926;5.332;2022-09-28T18:08:50;14.40;99.90
25554;DHT22;13446;50.926;5.332;2022-09-28T18:11:17;14.40;99.90
25554;DHT22;13446;50.926;5.332;2022-09-28T18:13:42;14.20;99.90
25554;DHT22;13446;50.926;5.332;2022-09-28T18:16:10;14.20;99.90
25554;DHT22;13446;50.926;5.332;2022-09-28T18:18:36;14.20;99.90
25554;DHT22;13446;50.926;5.332;2022-09-28T18:21:07;14.10;99.90
25554;DHT22;13446;50.926;5.332;2022-09-28T18:23:36;13.90;99.90
25554;DHT22;13446;50.926;5.332;2022-09-28T18:26:01;14.00;99.90
25554;DHT22;13446;50.926;5.332;2022-09-28T18:28:27;14.00;99.90
25554;DHT22;13446;50.926;5.332;2022-09-28T18:30:52;13.90;99.90
25554;DHT22;13446;50.926;5.332;2022-09-28T18:33:18;13.80;99.90
25554;DHT22;13446;50.926;5.332;2022-09-28T18:35:51;13.70;99.90
25554;DHT22;13446;50.926;5.332;2022-09-28T18:38:17;13.60;99.90
25554;DHT22;13446;50.926;5.332;2022-09-28T18:40:42;13.60;99.90
25554;DHT22;13446;50.926;5.332;2022-09-28T18:43:08;13.60;99.90
25554;DHT22;13446;50.926;5.332;2022-09-28T18:45:34;13.70;99.90
25554;DHT22;13446;50.926;5.332;2022-09-28T18:48:00;13.70;99.90
25554;DHT22;13446;50.926;5.332;2022-09-28T18:50:25;13.60;99.90
25554;DHT22;13446;50.926;5.332;2022-09-28T18:52:51;13.50;99.90
25554;DHT22;13446;50.926;5.332;2022-09-28T18:55:17;13.40;99.90
25554;DHT22;13446;50.926;5.332;2022-09-28T18:57:42;13.40;99.90
25554;DHT22;13446;50.926;5.332;2022-09-28T19:00:09;13.40;99.90
25554;DHT22;13446;50.926;5.332;2022-09-28T19:02:36;13.40;99.90
25554;DHT22;13446;50.926;5.332;2022-09-28T19:05:01;13.20;99.90